sensor_id;sensor_type;location;lat;lon;timestamp;P1;durP1;ratioP1;P2;durP2;ratioP2
49592;SDS011;35499;51.482;4.264;2022-10-17T00:00:15;4.00;;;2.00;;
49592;SDS011;35499;51.482;4.264;2022-10-17T00:02:40;9.02;;;1.73;;
49592;SDS011;35499;51.482;4.264;2022-10-17T00:05:05;3.77;;;2.53;;
49592;SDS011;35499;51.482;4.264;2022-10-17T00:07:31;5.27;;;2.30;;
49592;SDS011;35499;51.482;4.264;2022-10-17T00:09:56;2.83;;;2.30;;
49592;SDS011;35499;51.482;4.264;2022-10-17T00:12:21;8.87;;;3.03;;
49592;SDS011;35499;51.482;4.264;2022-10-17T00:14:46;2.50;;;1.87;;
49592;SDS011;35499;51.482;4.264;2022-10-17T00:17:12;3.57;;;2.63;;
49592;SDS011;35499;51.482;4.264;2022-10-17T00:19:39;3.75;;;2.30;;
49592;SDS011;35499;51.482;4.264;2022-10-17T00:22:04;3.80;;;2.23;;
49592;SDS011;35499;51.482;4.264;2022-10-17T00:24:29;4.63;;;2.53;;
49592;SDS011;35499;51.482;4.264;2022-10-17T00:26:55;3.95;;;2.95;;
49592;SDS011;35499;51.482;4.264;2022-10-17T00:29:20;3.70;;;2.30;;
49592;SDS011;35499;51.482;4.264;2022-10-17T00:31:45;25.40;;;3.73;;
49592;SDS011;35499;51.482;4.264;2022-10-17T00:34:10;5.90;;;2.87;;
49592;SDS011;35499;51.482;4.264;2022-10-17T00:36:36;3.67;;;2.67;;
49592;SDS011;35499;51.482;4.264;2022-10-17T00:39:01;6.53;;;3.33;;
49592;SDS011;35499;51.482;4.264;2022-10-17T00:41:29;5.97;;;2.58;;
49592;SDS011;35499;51.482;4.264;2022-10-17T00:46:20;4.68;;;2.95;;
49592;SDS011;35499;51.482;4.264;2022-10-17T00:48:47;3.97;;;2.45;;
49592;SDS011;35499;51.482;4.264;2022-10-17T00:51:13;5.68;;;2.88;;
49592;SDS011;35499;51.482;4.264;2022-10-17T00:53:39;4.65;;;2.92;;
49592;SDS011;35499;51.482;4.264;2022-10-17T00:56:04;5.93;;;2.70;;
49592;SDS011;35499;51.482;4.264;2022-10-17T00:58:30;5.13;;;2.80;;
49592;SDS011;35499;51.482;4.264;2022-10-17T01:00:55;4.23;;;2.63;;
49592;SDS011;35499;51.482;4.264;2022-10-17T01:03:20;6.00;;;3.07;;
49592;SDS011;35499;51.482;4.264;2022-10-17T01:05:45;4.53;;;2.90;;
49592;SDS011;35499;51.482;4.264;2022-10-17T01:08:11;4.27;;;2.57;;
49592;SDS011;35499;51.482;4.264;2022-10-17T01:10:44;7.10;;;2.72;;
49592;SDS011;35499;51.482;4.264;2022-10-17T01:13:14;3.65;;;2.63;;
49592;SDS011;35499;51.482;4.264;2022-10-17T01:16:04;4.70;;;2.95;;
49592;SDS011;35499;51.482;4.264;2022-10-17T01:18:37;5.53;;;3.05;;
49592;SDS011;35499;51.482;4.264;2022-10-17T01:31:42;8.18;;;3.65;;
49592;SDS011;35499;51.482;4.264;2022-10-17T01:39:21;5.20;;;3.00;;
49592;SDS011;35499;51.482;4.264;2022-10-17T01:41:55;6.20;;;2.72;;
49592;SDS011;35499;51.482;4.264;2022-10-17T01:46:48;8.35;;;2.58;;
49592;SDS011;35499;51.482;4.264;2022-10-17T01:49:14;5.88;;;2.97;;
49592;SDS011;35499;51.482;4.264;2022-10-17T01:51:42;2.90;;;1.95;;
49592;SDS011;35499;51.482;4.264;2022-10-17T01:56:35;4.20;;;3.00;;
49592;SDS011;35499;51.482;4.264;2022-10-17T01:59:03;5.55;;;3.13;;
49592;SDS011;35499;51.482;4.264;2022-10-17T02:01:30;5.65;;;3.25;;
49592;SDS011;35499;51.482;4.264;2022-10-17T02:03:56;4.10;;;3.10;;
49592;SDS011;35499;51.482;4.264;2022-10-17T02:06:22;4.43;;;3.25;;
49592;SDS011;35499;51.482;4.264;2022-10-17T02:08:48;4.90;;;2.90;;
49592;SDS011;35499;51.482;4.264;2022-10-17T02:11:17;6.35;;;3.30;;
49592;SDS011;35499;51.482;4.264;2022-10-17T02:18:43;4.25;;;2.85;;
49592;SDS011;35499;51.482;4.264;2022-10-17T02:21:17;9.93;;;3.47;;
49592;SDS011;35499;51.482;4.264;2022-10-17T02:26:15;5.18;;;3.63;;
49592;SDS011;35499;51.482;4.264;2022-10-17T02:28:48;7.30;;;3.45;;
49592;SDS011;35499;51.482;4.264;2022-10-17T02:31:20;3.58;;;2.95;;
49592;SDS011;35499;51.482;4.264;2022-10-17T02:33:48;5.68;;;3.30;;
49592;SDS011;35499;51.482;4.264;2022-10-17T02:36:19;7.35;;;4.07;;
49592;SDS011;35499;51.482;4.264;2022-10-17T02:38:45;4.65;;;2.95;;
49592;SDS011;35499;51.482;4.264;2022-10-17T02:41:12;4.57;;;3.05;;
49592;SDS011;35499;51.482;4.264;2022-10-17T02:43:39;6.95;;;3.42;;
49592;SDS011;35499;51.482;4.264;2022-10-17T02:46:07;6.82;;;3.70;;
49592;SDS011;35499;51.482;4.264;2022-10-17T02:48:36;4.60;;;2.97;;
49592;SDS011;35499;51.482;4.264;2022-10-17T02:51:04;9.93;;;4.00;;
49592;SDS011;35499;51.482;4.264;2022-10-17T02:53:33;6.97;;;3.80;;
49592;SDS011;35499;51.482;4.264;2022-10-17T02:56:03;5.60;;;3.28;;
49592;SDS011;35499;51.482;4.264;2022-10-17T02:58:30;8.70;;;3.38;;
49592;SDS011;35499;51.482;4.264;2022-10-17T03:00:57;6.32;;;3.67;;
49592;SDS011;35499;51.482;4.264;2022-10-17T03:03:23;6.53;;;3.55;;
49592;SDS011;35499;51.482;4.264;2022-10-17T03:08:14;5.30;;;3.20;;
49592;SDS011;35499;51.482;4.264;2022-10-17T03:10:40;8.47;;;3.43;;
49592;SDS011;35499;51.482;4.264;2022-10-17T03:13:05;17.53;;;3.53;;
49592;SDS011;35499;51.482;4.264;2022-10-17T03:15:30;7.70;;;3.80;;
49592;SDS011;35499;51.482;4.264;2022-10-17T03:17:55;7.68;;;2.92;;
49592;SDS011;35499;51.482;4.264;2022-10-17T03:20:20;5.57;;;3.63;;
49592;SDS011;35499;51.482;4.264;2022-10-17T03:22:46;5.60;;;3.63;;
49592;SDS011;35499;51.482;4.264;2022-10-17T03:25:11;5.13;;;3.33;;
49592;SDS011;35499;51.482;4.264;2022-10-17T03:27:36;7.07;;;3.77;;
49592;SDS011;35499;51.482;4.264;2022-10-17T03:30:01;4.00;;;2.83;;
49592;SDS011;35499;51.482;4.264;2022-10-17T03:32:26;7.43;;;3.77;;
49592;SDS011;35499;51.482;4.264;2022-10-17T03:34:52;9.97;;;3.77;;
49592;SDS011;35499;51.482;4.264;2022-10-17T03:37:17;4.90;;;2.93;;
49592;SDS011;35499;51.482;4.264;2022-10-17T03:39:42;7.80;;;4.27;;
49592;SDS011;35499;51.482;4.264;2022-10-17T03:42:07;8.57;;;3.43;;
49592;SDS011;35499;51.482;4.264;2022-10-17T03:44:32;11.50;;;4.03;;
49592;SDS011;35499;51.482;4.264;2022-10-17T03:46:58;8.50;;;3.25;;
49592;SDS011;35499;51.482;4.264;2022-10-17T03:49:23;6.03;;;3.63;;
49592;SDS011;35499;51.482;4.264;2022-10-17T03:51:48;8.45;;;3.58;;
49592;SDS011;35499;51.482;4.264;2022-10-17T03:54:13;5.00;;;3.33;;
49592;SDS011;35499;51.482;4.264;2022-10-17T03:56:38;7.03;;;3.17;;
49592;SDS011;35499;51.482;4.264;2022-10-17T03:59:04;5.80;;;3.27;;
49592;SDS011;35499;51.482;4.264;2022-10-17T04:01:29;4.90;;;2.93;;
49592;SDS011;35499;51.482;4.264;2022-10-17T04:03:55;7.27;;;3.30;;
49592;SDS011;35499;51.482;4.264;2022-10-17T04:06:20;5.30;;;3.08;;
49592;SDS011;35499;51.482;4.264;2022-10-17T04:08:46;5.03;;;2.78;;
49592;SDS011;35499;51.482;4.264;2022-10-17T04:11:15;5.72;;;2.58;;
49592;SDS011;35499;51.482;4.264;2022-10-17T04:13:41;5.70;;;3.20;;
49592;SDS011;35499;51.482;4.264;2022-10-17T04:16:09;4.27;;;3.13;;
49592;SDS011;35499;51.482;4.264;2022-10-17T04:18:34;5.95;;;2.58;;
49592;SDS011;35499;51.482;4.264;2022-10-17T04:21:00;7.00;;;3.13;;
49592;SDS011;35499;51.482;4.264;2022-10-17T04:23:25;12.57;;;2.92;;
49592;SDS011;35499;51.482;4.264;2022-10-17T04:25:54;5.40;;;3.00;;
49592;SDS011;35499;51.482;4.264;2022-10-17T04:28:19;7.85;;;3.38;;
49592;SDS011;35499;51.482;4.264;2022-10-17T04:30:44;5.17;;;2.53;;
49592;SDS011;35499;51.482;4.264;2022-10-17T04:33:09;8.40;;;2.93;;
49592;SDS011;35499;51.482;4.264;2022-10-17T04:35:35;6.37;;;3.23;;
49592;SDS011;35499;51.482;4.264;2022-10-17T04:38:00;6.73;;;3.27;;
49592;SDS011;35499;51.482;4.264;2022-10-17T04:40:25;7.07;;;3.70;;
49592;SDS011;35499;51.482;4.264;2022-10-17T04:42:50;6.77;;;2.83;;
49592;SDS011;35499;51.482;4.264;2022-10-17T04:45:16;6.28;;;3.10;;
49592;SDS011;35499;51.482;4.264;2022-10-17T04:47:41;4.10;;;2.90;;
49592;SDS011;35499;51.482;4.264;2022-10-17T04:50:07;6.32;;;3.05;;
49592;SDS011;35499;51.482;4.264;2022-10-17T04:52:33;6.43;;;3.13;;
49592;SDS011;35499;51.482;4.264;2022-10-17T04:54:58;8.35;;;3.65;;
49592;SDS011;35499;51.482;4.264;2022-10-17T04:57:23;8.60;;;2.80;;
49592;SDS011;35499;51.482;4.264;2022-10-17T04:59:49;5.53;;;2.90;;
49592;SDS011;35499;51.482;4.264;2022-10-17T05:02:14;3.95;;;3.13;;
49592;SDS011;35499;51.482;4.264;2022-10-17T05:04:39;7.40;;;3.17;;
49592;SDS011;35499;51.482;4.264;2022-10-17T05:07:04;9.00;;;2.83;;
49592;SDS011;35499;51.482;4.264;2022-10-17T05:09:30;3.20;;;2.37;;
49592;SDS011;35499;51.482;4.264;2022-10-17T05:11:55;4.70;;;3.30;;
49592;SDS011;35499;51.482;4.264;2022-10-17T05:14:23;12.50;;;3.47;;
49592;SDS011;35499;51.482;4.264;2022-10-17T05:16:48;3.63;;;2.80;;
49592;SDS011;35499;51.482;4.264;2022-10-17T05:19:13;6.30;;;2.67;;
49592;SDS011;35499;51.482;4.264;2022-10-17T05:21:39;4.17;;;2.57;;
49592;SDS011;35499;51.482;4.264;2022-10-17T05:24:05;7.67;;;3.30;;
49592;SDS011;35499;51.482;4.264;2022-10-17T05:26:30;5.70;;;2.88;;
49592;SDS011;35499;51.482;4.264;2022-10-17T05:28:55;5.60;;;2.57;;
49592;SDS011;35499;51.482;4.264;2022-10-17T05:31:20;5.63;;;3.37;;
49592;SDS011;35499;51.482;4.264;2022-10-17T05:33:46;5.43;;;3.13;;
49592;SDS011;35499;51.482;4.264;2022-10-17T05:36:11;6.13;;;3.50;;
49592;SDS011;35499;51.482;4.264;2022-10-17T05:38:36;4.73;;;3.00;;
49592;SDS011;35499;51.482;4.264;2022-10-17T05:41:03;7.13;;;3.43;;
49592;SDS011;35499;51.482;4.264;2022-10-17T05:43:29;6.05;;;2.92;;
49592;SDS011;35499;51.482;4.264;2022-10-17T05:45:54;5.60;;;2.85;;
49592;SDS011;35499;51.482;4.264;2022-10-17T05:48:20;5.35;;;3.25;;
49592;SDS011;35499;51.482;4.264;2022-10-17T05:50:45;7.03;;;3.22;;
49592;SDS011;35499;51.482;4.264;2022-10-17T05:53:10;5.47;;;2.73;;
49592;SDS011;35499;51.482;4.264;2022-10-17T05:55:35;8.97;;;2.60;;
49592;SDS011;35499;51.482;4.264;2022-10-17T05:58:01;5.17;;;2.90;;
49592;SDS011;35499;51.482;4.264;2022-10-17T06:00:26;5.72;;;3.63;;
49592;SDS011;35499;51.482;4.264;2022-10-17T06:02:51;4.47;;;2.80;;
49592;SDS011;35499;51.482;4.264;2022-10-17T06:05:17;4.70;;;2.93;;
49592;SDS011;35499;51.482;4.264;2022-10-17T06:07:42;4.30;;;2.63;;
49592;SDS011;35499;51.482;4.264;2022-10-17T06:10:07;4.80;;;3.43;;
49592;SDS011;35499;51.482;4.264;2022-10-17T06:12:33;7.53;;;2.50;;
49592;SDS011;35499;51.482;4.264;2022-10-17T06:14:58;4.57;;;2.90;;
49592;SDS011;35499;51.482;4.264;2022-10-17T06:17:23;6.13;;;2.53;;
49592;SDS011;35499;51.482;4.264;2022-10-17T06:19:49;5.28;;;3.10;;
49592;SDS011;35499;51.482;4.264;2022-10-17T06:22:14;4.90;;;2.80;;
49592;SDS011;35499;51.482;4.264;2022-10-17T06:24:39;4.20;;;3.40;;
49592;SDS011;35499;51.482;4.264;2022-10-17T06:27:04;3.83;;;2.65;;
49592;SDS011;35499;51.482;4.264;2022-10-17T06:29:30;6.60;;;3.43;;
49592;SDS011;35499;51.482;4.264;2022-10-17T06:31:55;6.47;;;3.13;;
49592;SDS011;35499;51.482;4.264;2022-10-17T06:34:20;6.37;;;2.63;;
49592;SDS011;35499;51.482;4.264;2022-10-17T06:36:46;4.70;;;2.80;;
49592;SDS011;35499;51.482;4.264;2022-10-17T06:39:11;4.20;;;3.08;;
49592;SDS011;35499;51.482;4.264;2022-10-17T06:41:37;4.45;;;3.05;;
49592;SDS011;35499;51.482;4.264;2022-10-17T06:44:03;8.65;;;2.55;;
49592;SDS011;35499;51.482;4.264;2022-10-17T06:46:34;8.25;;;3.72;;
49592;SDS011;35499;51.482;4.264;2022-10-17T06:49:00;6.60;;;3.53;;
49592;SDS011;35499;51.482;4.264;2022-10-17T06:51:25;4.40;;;2.70;;
49592;SDS011;35499;51.482;4.264;2022-10-17T06:53:50;5.23;;;2.70;;
49592;SDS011;35499;51.482;4.264;2022-10-17T06:56:15;3.83;;;2.77;;
49592;SDS011;35499;51.482;4.264;2022-10-17T06:58:40;5.17;;;2.83;;
49592;SDS011;35499;51.482;4.264;2022-10-17T07:01:10;4.00;;;2.87;;
49592;SDS011;35499;51.482;4.264;2022-10-17T07:03:35;7.25;;;3.20;;
49592;SDS011;35499;51.482;4.264;2022-10-17T07:06:01;4.20;;;2.33;;
49592;SDS011;35499;51.482;4.264;2022-10-17T07:08:26;6.53;;;2.60;;
49592;SDS011;35499;51.482;4.264;2022-10-17T07:10:52;4.93;;;2.42;;
49592;SDS011;35499;51.482;4.264;2022-10-17T07:13:18;4.35;;;2.78;;
49592;SDS011;35499;51.482;4.264;2022-10-17T07:15:43;6.88;;;3.35;;
49592;SDS011;35499;51.482;4.264;2022-10-17T07:18:09;8.55;;;3.00;;
49592;SDS011;35499;51.482;4.264;2022-10-17T07:20:34;4.97;;;3.40;;
49592;SDS011;35499;51.482;4.264;2022-10-17T07:22:59;5.70;;;2.87;;
49592;SDS011;35499;51.482;4.264;2022-10-17T07:25:24;8.73;;;3.60;;
49592;SDS011;35499;51.482;4.264;2022-10-17T07:27:50;10.95;;;4.22;;
49592;SDS011;35499;51.482;4.264;2022-10-17T07:30:16;7.65;;;4.25;;
49592;SDS011;35499;51.482;4.264;2022-10-17T07:32:41;12.63;;;4.57;;
49592;SDS011;35499;51.482;4.264;2022-10-17T07:35:06;12.85;;;5.30;;
49592;SDS011;35499;51.482;4.264;2022-10-17T07:37:32;9.18;;;4.68;;
49592;SDS011;35499;51.482;4.264;2022-10-17T07:39:57;8.70;;;4.20;;
49592;SDS011;35499;51.482;4.264;2022-10-17T07:42:22;8.87;;;3.93;;
49592;SDS011;35499;51.482;4.264;2022-10-17T07:44:47;8.63;;;4.67;;
49592;SDS011;35499;51.482;4.264;2022-10-17T07:47:12;12.30;;;4.27;;
49592;SDS011;35499;51.482;4.264;2022-10-17T07:49:38;13.47;;;3.87;;
49592;SDS011;35499;51.482;4.264;2022-10-17T07:52:08;8.20;;;3.58;;
49592;SDS011;35499;51.482;4.264;2022-10-17T07:54:33;12.68;;;5.63;;
49592;SDS011;35499;51.482;4.264;2022-10-17T07:56:58;15.23;;;4.37;;
49592;SDS011;35499;51.482;4.264;2022-10-17T07:59:23;5.70;;;3.97;;
49592;SDS011;35499;51.482;4.264;2022-10-17T08:01:48;10.20;;;4.33;;
49592;SDS011;35499;51.482;4.264;2022-10-17T08:04:14;9.83;;;4.53;;
49592;SDS011;35499;51.482;4.264;2022-10-17T08:06:40;9.02;;;4.65;;
49592;SDS011;35499;51.482;4.264;2022-10-17T08:09:05;11.55;;;5.80;;
49592;SDS011;35499;51.482;4.264;2022-10-17T08:11:31;7.33;;;4.07;;
49592;SDS011;35499;51.482;4.264;2022-10-17T08:13:56;12.87;;;4.67;;
49592;SDS011;35499;51.482;4.264;2022-10-17T08:16:21;12.57;;;5.10;;
49592;SDS011;35499;51.482;4.264;2022-10-17T08:18:46;9.57;;;4.53;;
49592;SDS011;35499;51.482;4.264;2022-10-17T08:21:11;13.67;;;5.20;;
49592;SDS011;35499;51.482;4.264;2022-10-17T08:23:37;18.20;;;5.00;;
49592;SDS011;35499;51.482;4.264;2022-10-17T08:26:04;7.75;;;4.72;;
49592;SDS011;35499;51.482;4.264;2022-10-17T08:28:29;8.43;;;3.88;;
49592;SDS011;35499;51.482;4.264;2022-10-17T08:31:02;8.63;;;4.30;;
49592;SDS011;35499;51.482;4.264;2022-10-17T08:33:27;13.52;;;4.75;;
49592;SDS011;35499;51.482;4.264;2022-10-17T08:35:52;9.43;;;5.13;;
49592;SDS011;35499;51.482;4.264;2022-10-17T08:38:17;12.00;;;4.43;;
49592;SDS011;35499;51.482;4.264;2022-10-17T08:40:43;13.95;;;4.72;;
49592;SDS011;35499;51.482;4.264;2022-10-17T08:45:57;7.35;;;4.25;;
49592;SDS011;35499;51.482;4.264;2022-10-17T08:48:24;8.35;;;4.65;;
49592;SDS011;35499;51.482;4.264;2022-10-17T08:51:02;10.02;;;5.07;;
49592;SDS011;35499;51.482;4.264;2022-10-17T08:55:55;9.45;;;4.07;;
49592;SDS011;35499;51.482;4.264;2022-10-17T08:58:23;8.20;;;4.03;;
49592;SDS011;35499;51.482;4.264;2022-10-17T09:01:02;8.00;;;4.45;;
49592;SDS011;35499;51.482;4.264;2022-10-17T09:08:52;6.85;;;3.45;;
49592;SDS011;35499;51.482;4.264;2022-10-17T09:14:01;4.00;;;3.05;;
49592;SDS011;35499;51.482;4.264;2022-10-17T09:16:34;5.50;;;3.40;;
49592;SDS011;35499;51.482;4.264;2022-10-17T09:19:14;5.53;;;3.25;;
49592;SDS011;35499;51.482;4.264;2022-10-17T09:21:46;6.95;;;2.75;;
49592;SDS011;35499;51.482;4.264;2022-10-17T09:24:15;5.70;;;3.15;;
49592;SDS011;35499;51.482;4.264;2022-10-17T09:26:43;5.55;;;2.17;;
49592;SDS011;35499;51.482;4.264;2022-10-17T09:29:14;3.65;;;2.13;;
49592;SDS011;35499;51.482;4.264;2022-10-17T09:31:43;6.35;;;3.15;;
49592;SDS011;35499;51.482;4.264;2022-10-17T09:34:09;6.88;;;2.60;;
49592;SDS011;35499;51.482;4.264;2022-10-17T09:36:36;5.75;;;3.00;;
49592;SDS011;35499;51.482;4.264;2022-10-17T09:39:12;4.45;;;2.65;;
49592;SDS011;35499;51.482;4.264;2022-10-17T09:41:40;7.13;;;3.40;;
49592;SDS011;35499;51.482;4.264;2022-10-17T09:44:22;5.05;;;2.92;;
49592;SDS011;35499;51.482;4.264;2022-10-17T09:47:49;4.95;;;3.08;;
49592;SDS011;35499;51.482;4.264;2022-10-17T09:49:44;5.57;;;2.75;;
49592;SDS011;35499;51.482;4.264;2022-10-17T09:52:20;6.07;;;3.63;;
49592;SDS011;35499;51.482;4.264;2022-10-17T09:54:49;8.45;;;2.70;;
49592;SDS011;35499;51.482;4.264;2022-10-17T09:57:15;12.43;;;3.55;;
49592;SDS011;35499;51.482;4.264;2022-10-17T09:59:45;5.45;;;3.40;;
49592;SDS011;35499;51.482;4.264;2022-10-17T10:04:40;7.07;;;3.47;;
49592;SDS011;35499;51.482;4.264;2022-10-17T10:07:15;6.43;;;3.53;;
49592;SDS011;35499;51.482;4.264;2022-10-17T10:09:44;6.40;;;3.58;;
49592;SDS011;35499;51.482;4.264;2022-10-17T10:14:44;8.30;;;2.90;;
49592;SDS011;35499;51.482;4.264;2022-10-17T10:19:56;6.97;;;3.33;;
49592;SDS011;35499;51.482;4.264;2022-10-17T10:22:21;5.68;;;3.60;;
49592;SDS011;35499;51.482;4.264;2022-10-17T10:27:33;6.43;;;3.35;;
49592;SDS011;35499;51.482;4.264;2022-10-17T10:29:59;6.65;;;3.35;;
49592;SDS011;35499;51.482;4.264;2022-10-17T10:32:25;8.60;;;2.93;;
49592;SDS011;35499;51.482;4.264;2022-10-17T10:34:58;6.15;;;3.30;;
49592;SDS011;35499;51.482;4.264;2022-10-17T10:37:25;6.07;;;4.13;;
49592;SDS011;35499;51.482;4.264;2022-10-17T10:39:52;4.97;;;3.03;;
49592;SDS011;35499;51.482;4.264;2022-10-17T10:44:43;6.68;;;3.30;;
49592;SDS011;35499;51.482;4.264;2022-10-17T10:49:43;5.32;;;3.03;;
49592;SDS011;35499;51.482;4.264;2022-10-17T10:52:11;5.07;;;3.00;;
49592;SDS011;35499;51.482;4.264;2022-10-17T10:54:41;7.47;;;3.25;;
49592;SDS011;35499;51.482;4.264;2022-10-17T10:57:09;3.85;;;2.90;;
49592;SDS011;35499;51.482;4.264;2022-10-17T11:02:42;6.63;;;3.35;;
49592;SDS011;35499;51.482;4.264;2022-10-17T11:05:11;5.53;;;3.05;;
49592;SDS011;35499;51.482;4.264;2022-10-17T11:07:41;7.60;;;3.80;;
49592;SDS011;35499;51.482;4.264;2022-10-17T11:12:56;5.55;;;3.67;;
49592;SDS011;35499;51.482;4.264;2022-10-17T11:15:30;6.03;;;4.32;;
49592;SDS011;35499;51.482;4.264;2022-10-17T11:18:07;7.45;;;4.22;;
49592;SDS011;35499;51.482;4.264;2022-10-17T11:20:43;8.00;;;4.88;;
49592;SDS011;35499;51.482;4.264;2022-10-17T11:23:16;8.82;;;4.38;;
49592;SDS011;35499;51.482;4.264;2022-10-17T11:25:46;6.47;;;4.20;;
49592;SDS011;35499;51.482;4.264;2022-10-17T11:28:13;9.63;;;3.80;;
49592;SDS011;35499;51.482;4.264;2022-10-17T11:30:47;8.35;;;4.35;;
49592;SDS011;35499;51.482;4.264;2022-10-17T11:33:15;10.35;;;4.88;;
49592;SDS011;35499;51.482;4.264;2022-10-17T11:35:42;7.32;;;3.85;;
49592;SDS011;35499;51.482;4.264;2022-10-17T11:40:35;7.50;;;4.40;;
49592;SDS011;35499;51.482;4.264;2022-10-17T11:43:13;9.32;;;4.25;;
49592;SDS011;35499;51.482;4.264;2022-10-17T11:45:43;7.00;;;4.68;;
49592;SDS011;35499;51.482;4.264;2022-10-17T11:48:13;6.35;;;3.78;;
49592;SDS011;35499;51.482;4.264;2022-10-17T11:50:42;6.85;;;4.10;;
49592;SDS011;35499;51.482;4.264;2022-10-17T11:53:13;4.78;;;3.45;;
49592;SDS011;35499;51.482;4.264;2022-10-17T11:55:40;6.88;;;4.10;;
49592;SDS011;35499;51.482;4.264;2022-10-17T12:03:27;7.65;;;4.75;;
49592;SDS011;35499;51.482;4.264;2022-10-17T12:11:02;6.90;;;4.65;;
49592;SDS011;35499;51.482;4.264;2022-10-17T12:15:57;7.32;;;5.07;;
49592;SDS011;35499;51.482;4.264;2022-10-17T12:18:23;9.80;;;5.70;;
49592;SDS011;35499;51.482;4.264;2022-10-17T12:20:55;11.88;;;5.57;;
49592;SDS011;35499;51.482;4.264;2022-10-17T12:23:22;11.60;;;6.80;;
49592;SDS011;35499;51.482;4.264;2022-10-17T12:25:53;9.48;;;6.35;;
49592;SDS011;35499;51.482;4.264;2022-10-17T12:28:31;10.20;;;5.88;;
49592;SDS011;35499;51.482;4.264;2022-10-17T12:31:01;14.25;;;6.22;;
49592;SDS011;35499;51.482;4.264;2022-10-17T12:38:38;9.77;;;5.38;;
49592;SDS011;35499;51.482;4.264;2022-10-17T12:41:04;8.97;;;5.40;;
49592;SDS011;35499;51.482;4.264;2022-10-17T12:45:57;7.68;;;4.82;;
49592;SDS011;35499;51.482;4.264;2022-10-17T12:53:38;9.15;;;4.97;;
49592;SDS011;35499;51.482;4.264;2022-10-17T12:56:05;7.35;;;4.63;;
49592;SDS011;35499;51.482;4.264;2022-10-17T12:58:31;5.68;;;3.58;;
49592;SDS011;35499;51.482;4.264;2022-10-17T13:00:57;7.38;;;3.90;;
49592;SDS011;35499;51.482;4.264;2022-10-17T13:03:25;6.50;;;3.65;;
49592;SDS011;35499;51.482;4.264;2022-10-17T13:05:51;7.47;;;3.70;;
49592;SDS011;35499;51.482;4.264;2022-10-17T13:08:18;6.28;;;3.20;;
49592;SDS011;35499;51.482;4.264;2022-10-17T13:10:45;6.82;;;2.85;;
49592;SDS011;35499;51.482;4.264;2022-10-17T13:13:22;6.43;;;3.50;;
49592;SDS011;35499;51.482;4.264;2022-10-17T13:15:51;7.30;;;4.05;;
49592;SDS011;35499;51.482;4.264;2022-10-17T13:18:21;7.00;;;3.80;;
49592;SDS011;35499;51.482;4.264;2022-10-17T13:21:03;6.70;;;4.05;;
49592;SDS011;35499;51.482;4.264;2022-10-17T13:23:38;5.63;;;3.60;;
49592;SDS011;35499;51.482;4.264;2022-10-17T13:26:04;7.13;;;4.00;;
49592;SDS011;35499;51.482;4.264;2022-10-17T13:28:30;6.63;;;3.65;;
49592;SDS011;35499;51.482;4.264;2022-10-17T13:30:55;4.97;;;3.43;;
49592;SDS011;35499;51.482;4.264;2022-10-17T13:33:35;6.83;;;5.07;;
49592;SDS011;35499;51.482;4.264;2022-10-17T13:36:02;6.35;;;4.00;;
49592;SDS011;35499;51.482;4.264;2022-10-17T13:38:29;9.52;;;4.18;;
49592;SDS011;35499;51.482;4.264;2022-10-17T13:40:56;8.00;;;4.20;;
49592;SDS011;35499;51.482;4.264;2022-10-17T13:43:21;8.50;;;4.32;;
49592;SDS011;35499;51.482;4.264;2022-10-17T13:45:50;7.05;;;4.00;;
49592;SDS011;35499;51.482;4.264;2022-10-17T13:48:24;5.35;;;3.92;;
49592;SDS011;35499;51.482;4.264;2022-10-17T13:50:54;7.53;;;4.22;;
49592;SDS011;35499;51.482;4.264;2022-10-17T13:53:33;6.32;;;4.00;;
49592;SDS011;35499;51.482;4.264;2022-10-17T13:58:24;5.83;;;4.00;;
49592;SDS011;35499;51.482;4.264;2022-10-17T14:00:50;7.18;;;4.20;;
49592;SDS011;35499;51.482;4.264;2022-10-17T14:03:17;6.32;;;3.88;;
49592;SDS011;35499;51.482;4.264;2022-10-17T14:08:26;7.65;;;4.20;;
49592;SDS011;35499;51.482;4.264;2022-10-17T14:10:51;9.30;;;3.97;;
49592;SDS011;35499;51.482;4.264;2022-10-17T14:13:21;6.40;;;4.07;;
49592;SDS011;35499;51.482;4.264;2022-10-17T14:15:46;7.05;;;3.92;;
49592;SDS011;35499;51.482;4.264;2022-10-17T14:18:13;7.35;;;3.97;;
49592;SDS011;35499;51.482;4.264;2022-10-17T14:20:39;7.25;;;3.75;;
49592;SDS011;35499;51.482;4.264;2022-10-17T14:23:24;5.55;;;3.80;;
49592;SDS011;35499;51.482;4.264;2022-10-17T14:26:02;6.13;;;3.17;;
49592;SDS011;35499;51.482;4.264;2022-10-17T14:28:27;6.57;;;3.50;;
49592;SDS011;35499;51.482;4.264;2022-10-17T14:30:53;5.32;;;3.63;;
49592;SDS011;35499;51.482;4.264;2022-10-17T14:33:28;6.50;;;3.42;;
49592;SDS011;35499;51.482;4.264;2022-10-17T14:35:55;5.18;;;3.25;;
49592;SDS011;35499;51.482;4.264;2022-10-17T14:38:21;6.60;;;3.72;;
49592;SDS011;35499;51.482;4.264;2022-10-17T14:40:50;6.40;;;4.10;;
49592;SDS011;35499;51.482;4.264;2022-10-17T14:43:18;6.18;;;3.80;;
49592;SDS011;35499;51.482;4.264;2022-10-17T14:45:44;5.35;;;3.80;;
49592;SDS011;35499;51.482;4.264;2022-10-17T14:50:36;4.70;;;3.20;;
49592;SDS011;35499;51.482;4.264;2022-10-17T14:53:05;6.85;;;3.85;;
49592;SDS011;35499;51.482;4.264;2022-10-17T14:55:33;5.43;;;3.38;;
49592;SDS011;35499;51.482;4.264;2022-10-17T14:58:00;4.20;;;2.85;;
49592;SDS011;35499;51.482;4.264;2022-10-17T15:00:25;5.43;;;2.80;;
49592;SDS011;35499;51.482;4.264;2022-10-17T15:02:51;4.30;;;2.93;;
49592;SDS011;35499;51.482;4.264;2022-10-17T15:05:17;7.53;;;3.03;;
49592;SDS011;35499;51.482;4.264;2022-10-17T15:07:44;7.40;;;2.95;;
49592;SDS011;35499;51.482;4.264;2022-10-17T15:12:47;4.57;;;3.40;;
49592;SDS011;35499;51.482;4.264;2022-10-17T15:15:12;5.50;;;3.50;;
49592;SDS011;35499;51.482;4.264;2022-10-17T15:17:37;5.10;;;2.20;;
49592;SDS011;35499;51.482;4.264;2022-10-17T15:20:05;6.07;;;3.00;;
49592;SDS011;35499;51.482;4.264;2022-10-17T15:22:35;5.57;;;2.70;;
49592;SDS011;35499;51.482;4.264;2022-10-17T15:25:01;4.30;;;3.13;;
49592;SDS011;35499;51.482;4.264;2022-10-17T15:27:26;4.93;;;2.93;;
49592;SDS011;35499;51.482;4.264;2022-10-17T15:29:53;3.92;;;2.67;;
49592;SDS011;35499;51.482;4.264;2022-10-17T15:32:18;5.27;;;2.67;;
49592;SDS011;35499;51.482;4.264;2022-10-17T15:34:43;4.10;;;2.63;;
49592;SDS011;35499;51.482;4.264;2022-10-17T15:37:16;4.45;;;2.60;;
49592;SDS011;35499;51.482;4.264;2022-10-17T15:39:42;3.88;;;2.55;;
49592;SDS011;35499;51.482;4.264;2022-10-17T15:42:09;4.30;;;2.35;;
49592;SDS011;35499;51.482;4.264;2022-10-17T15:44:35;3.90;;;2.42;;
49592;SDS011;35499;51.482;4.264;2022-10-17T15:47:00;7.47;;;2.43;;
49592;SDS011;35499;51.482;4.264;2022-10-17T15:49:26;3.80;;;2.50;;
49592;SDS011;35499;51.482;4.264;2022-10-17T15:51:51;2.80;;;1.80;;
49592;SDS011;35499;51.482;4.264;2022-10-17T15:54:16;7.13;;;2.25;;
49592;SDS011;35499;51.482;4.264;2022-10-17T15:56:42;4.90;;;2.37;;
49592;SDS011;35499;51.482;4.264;2022-10-17T15:59:12;5.75;;;2.42;;
49592;SDS011;35499;51.482;4.264;2022-10-17T16:01:38;5.65;;;2.55;;
49592;SDS011;35499;51.482;4.264;2022-10-17T16:04:03;3.80;;;2.33;;
49592;SDS011;35499;51.482;4.264;2022-10-17T16:06:29;4.27;;;2.07;;
49592;SDS011;35499;51.482;4.264;2022-10-17T16:08:54;7.07;;;2.70;;
49592;SDS011;35499;51.482;4.264;2022-10-17T16:11:29;2.57;;;1.80;;
49592;SDS011;35499;51.482;4.264;2022-10-17T16:13:56;4.47;;;2.00;;
49592;SDS011;35499;51.482;4.264;2022-10-17T16:18:47;4.82;;;1.80;;
49592;SDS011;35499;51.482;4.264;2022-10-17T16:21:13;2.90;;;2.33;;
49592;SDS011;35499;51.482;4.264;2022-10-17T16:23:40;3.28;;;1.77;;
49592;SDS011;35499;51.482;4.264;2022-10-17T16:26:05;4.28;;;1.90;;
49592;SDS011;35499;51.482;4.264;2022-10-17T16:28:31;4.00;;;2.00;;
49592;SDS011;35499;51.482;4.264;2022-10-17T16:30:56;3.60;;;2.50;;
49592;SDS011;35499;51.482;4.264;2022-10-17T16:33:21;3.33;;;2.30;;